createdAt,value
2023-03-07T00:00:02.748Z,4.00
2023-03-07T00:01:02.670Z,4.00
2023-03-07T00:02:02.597Z,4.00
2023-03-07T00:03:02.628Z,4.00
2023-03-07T00:04:23.436Z,4.00
2023-03-07T00:05:02.398Z,4.00
2023-03-07T00:06:02.308Z,4.00
2023-03-07T00:07:02.248Z,4.00
2023-03-07T00:08:02.169Z,4.00
2023-03-07T00:09:02.101Z,4.00
2023-03-07T00:10:23.010Z,4.00
2023-03-07T00:11:01.949Z,4.00
2023-03-07T00:12:01.879Z,4.00
2023-03-07T00:13:01.805Z,4.00
2023-03-07T00:14:01.733Z,4.00
2023-03-07T00:15:01.659Z,4.00
2023-03-07T00:16:22.609Z,4.00
2023-03-07T00:17:01.516Z,4.00
2023-03-07T00:18:01.436Z,4.00
2023-03-07T00:19:01.371Z,4.00
2023-03-07T00:20:01.305Z,4.00
2023-03-07T00:21:01.229Z,4.00
2023-03-07T00:22:22.153Z,4.00
2023-03-07T00:23:01.098Z,4.00
2023-03-07T00:24:01.025Z,4.00
2023-03-07T00:25:00.940Z,0.00
2023-03-07T00:26:00.889Z,0.00
2023-03-07T00:27:00.810Z,0.00
2023-03-07T00:28:21.707Z,0.00
2023-03-07T00:29:00.655Z,0.00
2023-03-07T00:30:00.606Z,0.00
2023-03-07T00:31:00.514Z,0.00
2023-03-07T00:32:00.439Z,0.00
2023-03-07T00:33:00.386Z,0.00
2023-03-07T00:34:21.276Z,0.00
2023-03-07T00:35:00.241Z,0.00
2023-03-07T00:36:00.264Z,0.00
2023-03-07T00:37:00.090Z,0.00
2023-03-07T00:38:00.004Z,0.00
2023-03-07T00:38:59.938Z,0.00
2023-03-07T00:40:20.850Z,0.00
2023-03-07T00:40:59.800Z,0.00
2023-03-07T00:41:59.732Z,0.00
2023-03-07T00:42:59.656Z,0.00
2023-03-07T00:43:59.578Z,0.00
2023-03-07T00:44:59.511Z,0.00
2023-03-07T00:46:20.422Z,0.00
2023-03-07T00:46:59.367Z,0.00
2023-03-07T00:47:59.300Z,0.00
2023-03-07T00:48:59.231Z,0.00
2023-03-07T00:49:59.162Z,0.00
2023-03-07T00:50:59.095Z,0.00
2023-03-07T00:52:20.022Z,0.00
2023-03-07T00:52:58.944Z,0.00
2023-03-07T00:53:58.872Z,0.00
2023-03-07T00:54:58.796Z,0.00
2023-03-07T00:55:58.736Z,0.00
2023-03-07T00:56:58.656Z,0.00
2023-03-07T00:58:19.566Z,0.00
2023-03-07T00:58:58.509Z,0.00
2023-03-07T00:59:58.431Z,0.00
2023-03-07T01:00:58.449Z,0.00
2023-03-07T01:01:58.294Z,0.00
2023-03-07T01:02:58.230Z,0.00
2023-03-07T01:04:19.214Z,0.00
2023-03-07T01:04:58.110Z,0.00
2023-03-07T01:05:58.013Z,0.00
2023-03-07T01:06:57.949Z,0.00
2023-03-07T01:07:57.876Z,0.00
2023-03-07T01:08:57.800Z,0.00
2023-03-07T01:10:18.707Z,0.00
2023-03-07T01:10:57.651Z,0.00
2023-03-07T01:11:57.584Z,0.00
2023-03-07T01:12:57.506Z,0.00
2023-03-07T01:13:57.460Z,0.00
2023-03-07T01:14:57.386Z,0.00
2023-03-07T01:16:18.378Z,0.00
2023-03-07T01:16:57.286Z,0.00
2023-03-07T01:17:57.163Z,0.00
2023-03-07T01:18:57.084Z,0.00
2023-03-07T01:19:57.007Z,0.00
2023-03-07T01:20:56.936Z,0.00
2023-03-07T01:22:17.842Z,0.00
2023-03-07T01:22:56.811Z,0.00
2023-03-07T01:23:56.729Z,0.00
2023-03-07T01:24:56.652Z,0.00
2023-03-07T01:25:56.573Z,0.00
2023-03-07T01:26:56.504Z,0.00
2023-03-07T01:28:17.413Z,0.00
2023-03-07T01:28:56.361Z,0.00
2023-03-07T01:29:56.283Z,0.00
2023-03-07T01:30:56.220Z,0.00
2023-03-07T01:31:56.186Z,0.00
2023-03-07T01:32:56.086Z,0.00
2023-03-07T01:34:16.994Z,0.00
2023-03-07T01:34:55.932Z,0.00
2023-03-07T01:35:55.954Z,0.00
2023-03-07T01:36:55.844Z,0.00
2023-03-07T01:37:55.720Z,0.00
2023-03-07T01:38:55.673Z,0.00
2023-03-07T01:40:16.551Z,0.00
2023-03-07T01:40:55.501Z,0.00
2023-03-07T01:41:55.446Z,0.00
2023-03-07T01:42:55.356Z,0.00
2023-03-07T01:43:55.277Z,0.00
2023-03-07T01:44:55.250Z,0.00
2023-03-07T01:46:16.157Z,0.00
2023-03-07T01:46:55.070Z,0.00
2023-03-07T01:47:54.995Z,0.00
2023-03-07T01:48:54.931Z,0.00
2023-03-07T01:49:54.869Z,0.00
2023-03-07T01:50:54.784Z,0.00
2023-03-07T01:52:15.689Z,0.00
2023-03-07T01:52:54.640Z,0.00
2023-03-07T01:53:54.563Z,0.00
2023-03-07T01:54:54.498Z,0.00
2023-03-07T01:55:54.413Z,0.00
2023-03-07T01:56:54.345Z,0.00
2023-03-07T01:58:15.265Z,0.00
2023-03-07T01:58:54.218Z,0.00
2023-03-07T01:59:54.124Z,0.00
2023-03-07T02:00:54.114Z,0.00
2023-03-07T02:01:53.989Z,0.00
2023-03-07T02:02:53.922Z,0.00
2023-03-07T02:04:14.852Z,0.00
2023-03-07T02:04:53.777Z,0.00
2023-03-07T02:05:53.700Z,0.00
2023-03-07T02:06:53.634Z,0.00
2023-03-07T02:07:53.561Z,0.00
2023-03-07T02:08:53.484Z,0.00
2023-03-07T02:10:14.415Z,0.00
2023-03-07T02:10:53.343Z,0.00
2023-03-07T02:11:53.275Z,0.00
2023-03-07T02:12:53.205Z,0.00
2023-03-07T02:13:53.122Z,0.00
2023-03-07T02:14:53.082Z,0.00
2023-03-07T02:16:14.049Z,0.00
2023-03-07T02:16:52.911Z,0.00
2023-03-07T02:17:52.843Z,0.00
2023-03-07T02:18:52.768Z,0.00
2023-03-07T02:19:52.692Z,0.00
2023-03-07T02:20:52.632Z,0.00
2023-03-07T02:22:13.531Z,0.00
2023-03-07T02:22:52.481Z,0.00
2023-03-07T02:23:52.405Z,0.00
2023-03-07T02:24:52.345Z,0.00
2023-03-07T02:25:52.256Z,0.00
2023-03-07T02:26:52.198Z,0.00
2023-03-07T02:28:13.110Z,0.00
2023-03-07T02:28:52.051Z,0.00
2023-03-07T02:29:51.973Z,0.00
2023-03-07T02:30:52.020Z,0.00
2023-03-07T02:31:51.837Z,0.00
2023-03-07T02:32:51.760Z,0.00
2023-03-07T02:34:12.672Z,0.00
2023-03-07T02:34:51.616Z,0.00
2023-03-07T02:35:51.682Z,0.00
2023-03-07T02:36:51.479Z,0.00
2023-03-07T02:37:51.411Z,0.00
2023-03-07T02:38:51.333Z,0.00
2023-03-07T02:40:12.246Z,0.00
2023-03-07T02:40:51.199Z,0.00
2023-03-07T02:41:51.113Z,0.00
2023-03-07T02:42:51.087Z,0.00
2023-03-07T02:43:50.991Z,0.00
2023-03-07T02:44:50.912Z,0.00
2023-03-07T02:46:11.837Z,0.00
2023-03-07T02:46:50.879Z,0.00
2023-03-07T02:47:50.684Z,0.00
2023-03-07T02:48:50.640Z,0.00
2023-03-07T02:49:50.545Z,0.00
2023-03-07T02:50:50.494Z,0.00
2023-03-07T02:52:11.392Z,0.00
2023-03-07T02:52:50.336Z,0.00
2023-03-07T02:53:50.267Z,0.00
2023-03-07T02:54:50.188Z,0.00
2023-03-07T02:55:50.122Z,0.00
2023-03-07T02:56:50.044Z,0.00
2023-03-07T02:58:10.955Z,0.00
2023-03-07T02:58:49.901Z,0.00
2023-03-07T02:59:49.849Z,0.00
2023-03-07T03:00:49.757Z,0.00
2023-03-07T03:01:49.726Z,0.00
2023-03-07T03:02:49.670Z,0.00
2023-03-07T03:04:10.537Z,0.00
2023-03-07T03:04:49.511Z,0.00
2023-03-07T03:05:49.402Z,0.00
2023-03-07T03:06:49.328Z,0.00
2023-03-07T03:07:49.314Z,0.00
2023-03-07T03:08:49.194Z,0.00
2023-03-07T03:10:10.092Z,0.00
2023-03-07T03:10:49.051Z,0.00
2023-03-07T03:11:48.967Z,0.00
2023-03-07T03:12:48.901Z,0.00
2023-03-07T03:13:48.836Z,0.00
2023-03-07T03:14:48.760Z,0.00
2023-03-07T03:16:09.754Z,0.00
2023-03-07T03:16:48.625Z,0.00
2023-03-07T03:17:48.544Z,0.00
2023-03-07T03:18:48.470Z,0.00
2023-03-07T03:19:48.398Z,0.00
2023-03-07T03:20:48.339Z,0.00
2023-03-07T03:22:09.237Z,0.00
2023-03-07T03:22:48.193Z,0.00
2023-03-07T03:23:48.134Z,0.00
2023-03-07T03:24:48.062Z,0.00
2023-03-07T03:25:47.975Z,0.00
2023-03-07T03:26:47.911Z,0.00
2023-03-07T03:28:08.817Z,0.00
2023-03-07T03:28:47.814Z,0.00
2023-03-07T03:29:47.688Z,0.00
2023-03-07T03:30:47.613Z,0.00
2023-03-07T03:31:47.544Z,0.00
2023-03-07T03:32:47.473Z,0.00
2023-03-07T03:34:08.389Z,0.00
2023-03-07T03:34:47.360Z,0.00
2023-03-07T03:35:47.308Z,0.00
2023-03-07T03:36:47.190Z,0.00
2023-03-07T03:37:47.130Z,0.00
2023-03-07T03:38:47.043Z,0.00
2023-03-07T03:40:07.962Z,0.00
2023-03-07T03:40:46.907Z,0.00
2023-03-07T03:41:46.864Z,0.00
2023-03-07T03:42:46.756Z,0.00
2023-03-07T03:43:46.688Z,0.00
2023-03-07T03:44:46.616Z,0.00
2023-03-07T03:46:07.596Z,0.00
2023-03-07T03:46:46.507Z,0.00
2023-03-07T03:47:46.392Z,0.00
2023-03-07T03:48:46.331Z,0.00
2023-03-07T03:49:46.275Z,0.00
2023-03-07T03:50:46.181Z,0.00
2023-03-07T03:52:07.096Z,0.00
2023-03-07T03:52:46.050Z,0.00
2023-03-07T03:53:45.972Z,0.00
2023-03-07T03:54:45.898Z,0.00
2023-03-07T03:55:45.822Z,0.00
2023-03-07T03:56:45.761Z,0.00
2023-03-07T03:58:06.664Z,0.00
2023-03-07T03:58:45.612Z,0.00
2023-03-07T03:59:45.536Z,0.00
2023-03-07T04:00:45.470Z,0.00
2023-03-07T04:01:45.439Z,0.00
2023-03-07T04:02:45.419Z,0.00
2023-03-07T04:04:06.233Z,0.00
2023-03-07T04:04:45.189Z,0.00
2023-03-07T04:05:45.141Z,0.00
2023-03-07T04:06:45.048Z,0.00
2023-03-07T04:07:44.974Z,0.00
2023-03-07T04:08:44.900Z,0.00
2023-03-07T04:10:05.802Z,0.00
2023-03-07T04:10:44.782Z,0.00
2023-03-07T04:11:44.681Z,0.00
2023-03-07T04:12:44.615Z,0.00
2023-03-07T04:13:44.534Z,0.00
2023-03-07T04:14:44.472Z,0.00
2023-03-07T04:16:05.426Z,0.00
2023-03-07T04:16:44.456Z,0.00
2023-03-07T04:17:44.253Z,0.00
2023-03-07T04:18:44.185Z,0.00
2023-03-07T04:19:44.106Z,0.00
2023-03-07T04:20:44.053Z,0.00
2023-03-07T04:22:04.947Z,0.00
2023-03-07T04:22:43.899Z,0.00
2023-03-07T04:23:43.825Z,0.00
2023-03-07T04:24:43.761Z,0.00
2023-03-07T04:25:43.715Z,0.00
2023-03-07T04:26:43.632Z,0.00
2023-03-07T04:28:04.528Z,0.00
2023-03-07T04:28:43.485Z,0.00
2023-03-07T04:29:43.397Z,0.00
2023-03-07T04:30:43.323Z,0.00
2023-03-07T04:31:43.367Z,0.00
2023-03-07T04:32:43.218Z,0.00
2023-03-07T04:34:04.097Z,0.00
2023-03-07T04:34:43.039Z,0.00
2023-03-07T04:35:42.998Z,0.00
2023-03-07T04:36:42.894Z,0.00
2023-03-07T04:37:42.826Z,0.00
2023-03-07T04:38:42.753Z,0.00
2023-03-07T04:40:03.668Z,0.00
2023-03-07T04:40:42.611Z,0.00
2023-03-07T04:41:42.556Z,0.00
2023-03-07T04:42:42.473Z,0.00
2023-03-07T04:43:42.412Z,0.00
2023-03-07T04:44:42.328Z,0.00
2023-03-07T04:46:03.340Z,0.00
2023-03-07T04:46:42.198Z,0.00
2023-03-07T04:47:42.123Z,0.00
2023-03-07T04:48:42.055Z,0.00
2023-03-07T04:49:41.972Z,0.00
2023-03-07T04:50:41.903Z,0.00
2023-03-07T04:52:02.819Z,0.00
2023-03-07T04:52:41.756Z,0.00
2023-03-07T04:53:41.695Z,0.00
2023-03-07T04:54:41.624Z,0.00
2023-03-07T04:55:41.550Z,0.00
2023-03-07T04:56:41.474Z,0.00
2023-03-07T04:58:02.391Z,0.00
2023-03-07T04:58:41.334Z,0.00
2023-03-07T04:59:41.275Z,0.00
2023-03-07T05:00:41.190Z,0.00
2023-03-07T05:01:41.151Z,0.00
2023-03-07T05:02:41.061Z,0.00
2023-03-07T05:04:02.011Z,0.00
2023-03-07T05:04:40.929Z,0.00
2023-03-07T05:05:40.839Z,0.00
2023-03-07T05:06:40.768Z,0.00
2023-03-07T05:07:40.693Z,0.00
2023-03-07T05:08:40.618Z,0.00
2023-03-07T05:10:01.535Z,0.00
2023-03-07T05:10:40.478Z,0.00
2023-03-07T05:11:40.404Z,0.00
2023-03-07T05:12:40.342Z,0.00
2023-03-07T05:13:40.278Z,0.00
2023-03-07T05:14:40.210Z,0.00
2023-03-07T05:16:01.162Z,0.00
2023-03-07T05:16:40.069Z,0.00
2023-03-07T05:17:39.982Z,0.00
2023-03-07T05:18:39.909Z,0.00
2023-03-07T05:19:39.841Z,0.00
2023-03-07T05:20:39.764Z,0.00
2023-03-07T05:22:00.681Z,0.00
2023-03-07T05:22:39.623Z,0.00
2023-03-07T05:23:39.553Z,0.00
2023-03-07T05:24:39.478Z,4.00
2023-03-07T05:25:39.413Z,4.00
2023-03-07T05:26:39.332Z,0.00
2023-03-07T05:28:00.249Z,0.00
2023-03-07T05:28:39.187Z,0.00
2023-03-07T05:29:39.124Z,4.00
2023-03-07T05:30:39.062Z,4.00
2023-03-07T05:31:38.978Z,4.00
2023-03-07T05:32:39.015Z,4.00
2023-03-07T05:33:59.827Z,4.00
2023-03-07T05:34:38.773Z,8.00
2023-03-07T05:35:38.770Z,8.00
2023-03-07T05:36:38.623Z,8.00
2023-03-07T05:37:38.548Z,8.00
2023-03-07T05:38:38.487Z,8.00
2023-03-07T05:39:59.398Z,8.00
2023-03-07T05:40:38.335Z,12.00
2023-03-07T05:41:38.262Z,8.00
2023-03-07T05:42:38.191Z,12.00
2023-03-07T05:43:38.138Z,12.00
2023-03-07T05:44:38.061Z,12.00
2023-03-07T05:45:58.997Z,16.00
2023-03-07T05:46:37.966Z,16.00
2023-03-07T05:47:37.838Z,24.00
2023-03-07T05:48:37.773Z,20.00
2023-03-07T05:49:37.698Z,24.00
2023-03-07T05:50:37.623Z,24.00
2023-03-07T05:51:58.538Z,24.00
2023-03-07T05:52:37.478Z,24.00
2023-03-07T05:53:37.412Z,24.00
2023-03-07T05:54:37.343Z,24.00
2023-03-07T05:55:37.271Z,24.00
2023-03-07T05:56:37.192Z,24.00
2023-03-07T05:57:58.137Z,28.00
2023-03-07T05:58:37.055Z,32.00
2023-03-07T05:59:36.978Z,44.00
2023-03-07T06:00:36.903Z,48.00
2023-03-07T06:01:36.845Z,44.00
2023-03-07T06:02:36.799Z,48.00
2023-03-07T06:03:57.730Z,40.00
2023-03-07T06:04:36.622Z,52.00
2023-03-07T06:05:36.562Z,52.00
2023-03-07T06:06:36.478Z,56.00
2023-03-07T06:07:36.426Z,56.00
2023-03-07T06:08:36.364Z,56.00
2023-03-07T06:09:57.257Z,60.00
2023-03-07T06:10:36.238Z,64.00
2023-03-07T06:11:36.189Z,64.00
2023-03-07T06:12:36.045Z,84.00
2023-03-07T06:13:35.980Z,80.00
2023-03-07T06:14:35.910Z,76.00
2023-03-07T06:15:56.882Z,84.00
2023-03-07T06:16:35.763Z,112.00
2023-03-07T06:17:35.691Z,104.00
2023-03-07T06:18:35.620Z,112.00
2023-03-07T06:19:35.549Z,148.00
2023-03-07T06:20:35.481Z,168.00
2023-03-07T06:21:56.390Z,164.00
2023-03-07T06:22:35.334Z,196.00
2023-03-07T06:23:35.260Z,192.00
2023-03-07T06:24:35.202Z,204.00
2023-03-07T06:25:35.134Z,176.00
2023-03-07T06:26:35.047Z,144.00
2023-03-07T06:27:55.967Z,192.00
2023-03-07T06:28:34.923Z,168.00
2023-03-07T06:29:34.844Z,156.00
2023-03-07T06:30:34.772Z,156.00
2023-03-07T06:31:34.868Z,168.00
2023-03-07T06:32:34.649Z,180.00
2023-03-07T06:33:57.508Z,196.00
2023-03-07T06:34:34.496Z,160.00
2023-03-07T06:35:34.417Z,176.00
2023-03-07T06:36:34.333Z,184.00
2023-03-07T06:37:34.300Z,204.00
2023-03-07T06:38:34.199Z,196.00
2023-03-07T06:39:55.108Z,192.00
2023-03-07T06:40:34.054Z,188.00
2023-03-07T06:41:33.985Z,200.00
2023-03-07T06:42:33.909Z,220.00
2023-03-07T06:43:33.842Z,200.00
2023-03-07T06:44:33.769Z,220.00
2023-03-07T06:45:54.798Z,252.00
2023-03-07T06:46:33.628Z,256.00
2023-03-07T06:47:33.562Z,272.00
2023-03-07T06:48:33.489Z,268.00
2023-03-07T06:49:33.418Z,284.00
2023-03-07T06:50:35.693Z,328.00
2023-03-07T06:51:54.266Z,256.00
2023-03-07T06:52:33.376Z,336.00
2023-03-07T06:53:33.142Z,356.00
2023-03-07T06:54:33.136Z,304.00
2023-03-07T06:55:32.997Z,400.00
2023-03-07T06:56:32.927Z,600.00
2023-03-07T06:57:53.834Z,676.00
2023-03-07T06:58:32.776Z,636.00
2023-03-07T06:59:32.711Z,576.00
2023-03-07T07:00:32.802Z,536.00
2023-03-07T07:01:32.560Z,460.00
2023-03-07T07:02:32.616Z,472.00
2023-03-07T07:03:53.409Z,480.00
2023-03-07T07:04:32.347Z,476.00
2023-03-07T07:05:32.275Z,492.00
2023-03-07T07:06:32.203Z,520.00
2023-03-07T07:07:32.135Z,532.00
2023-03-07T07:08:32.073Z,576.00
2023-03-07T07:09:52.987Z,732.00
2023-03-07T07:10:31.920Z,936.00
2023-03-07T07:11:31.870Z,1192.00
2023-03-07T07:12:31.784Z,1240.00
2023-03-07T07:13:31.720Z,1040.00
2023-03-07T07:14:31.633Z,716.00
2023-03-07T07:15:52.551Z,684.00
2023-03-07T07:16:31.562Z,672.00
2023-03-07T07:17:31.441Z,572.00
2023-03-07T07:18:31.353Z,636.00
2023-03-07T07:19:31.298Z,908.00
2023-03-07T07:20:31.214Z,1104.00
2023-03-07T07:21:52.135Z,1308.00
2023-03-07T07:22:31.074Z,1604.00
2023-03-07T07:23:31.016Z,1788.00
2023-03-07T07:24:30.942Z,1800.00
2023-03-07T07:25:30.886Z,1956.00
2023-03-07T07:26:30.786Z,1992.00
2023-03-07T07:27:51.712Z,1996.00
2023-03-07T07:28:30.655Z,2224.00
2023-03-07T07:29:30.592Z,2384.00
2023-03-07T07:30:30.526Z,2504.00
2023-03-07T07:31:30.472Z,2480.00
2023-03-07T07:32:30.525Z,2528.00
2023-03-07T07:33:51.282Z,2484.00
2023-03-07T07:34:30.227Z,2328.00
2023-03-07T07:35:30.312Z,2272.00
2023-03-07T07:36:30.098Z,2108.00
2023-03-07T07:37:30.051Z,2032.00
2023-03-07T07:38:29.942Z,1780.00
2023-03-07T07:39:50.863Z,1592.00
2023-03-07T07:40:29.805Z,1500.00
2023-03-07T07:41:29.746Z,1372.00
2023-03-07T07:42:32.139Z,1364.00
2023-03-07T07:43:29.621Z,1472.00
2023-03-07T07:44:29.541Z,1544.00
2023-03-07T07:45:50.493Z,1564.00
2023-03-07T07:46:29.387Z,1584.00
2023-03-07T07:47:29.319Z,1848.00
2023-03-07T07:48:29.245Z,1772.00
2023-03-07T07:49:29.183Z,1440.00
2023-03-07T07:50:29.105Z,1208.00
2023-03-07T07:51:50.040Z,1228.00
2023-03-07T07:52:28.988Z,1468.00
2023-03-07T07:53:28.899Z,1708.00
2023-03-07T07:54:28.836Z,1720.00
2023-03-07T07:55:28.766Z,1448.00
2023-03-07T07:56:28.694Z,1108.00
2023-03-07T07:57:49.623Z,992.00
2023-03-07T07:58:28.557Z,1256.00
2023-03-07T07:59:28.497Z,1412.00
2023-03-07T08:00:28.515Z,1616.00
2023-03-07T08:01:28.344Z,1804.00
2023-03-07T08:02:28.299Z,1948.00
2023-03-07T08:03:49.235Z,2128.00
2023-03-07T08:04:28.140Z,2124.00
2023-03-07T08:05:28.062Z,2132.00
2023-03-07T08:06:28.001Z,1984.00
2023-03-07T08:07:27.933Z,1772.00
2023-03-07T08:08:27.855Z,1640.00
2023-03-07T08:09:48.813Z,1448.00
2023-03-07T08:10:27.723Z,1292.00
2023-03-07T08:11:27.754Z,1260.00
2023-03-07T08:12:28.087Z,1176.00
2023-03-07T08:13:27.515Z,1136.00
2023-03-07T08:14:27.445Z,1136.00
2023-03-07T08:15:48.413Z,916.00
2023-03-07T08:16:27.305Z,700.00
2023-03-07T08:17:27.235Z,660.00
2023-03-07T08:18:27.160Z,592.00
2023-03-07T08:19:27.102Z,528.00
2023-03-07T08:20:27.057Z,636.00
2023-03-07T08:21:47.939Z,768.00
2023-03-07T08:22:26.893Z,832.00
2023-03-07T08:23:26.818Z,872.00
2023-03-07T08:24:39.738Z,960.00
2023-03-07T08:25:26.688Z,804.00
2023-03-07T08:26:26.610Z,584.00
2023-03-07T08:27:47.524Z,532.00
2023-03-07T08:28:26.471Z,460.00
2023-03-07T08:29:26.412Z,452.00
2023-03-07T08:30:26.429Z,484.00
2023-03-07T08:31:26.330Z,444.00
2023-03-07T08:32:26.262Z,408.00
2023-03-07T08:33:47.101Z,508.00
2023-03-07T08:34:26.044Z,768.00
2023-03-07T08:35:26.086Z,924.00
2023-03-07T08:36:25.939Z,984.00
2023-03-07T08:37:25.875Z,1008.00
2023-03-07T08:38:27.781Z,1176.00
2023-03-07T08:39:46.686Z,1344.00
2023-03-07T08:40:25.636Z,1280.00
2023-03-07T08:41:25.571Z,1160.00
2023-03-07T08:42:25.509Z,984.00
2023-03-07T08:43:25.432Z,1060.00
2023-03-07T08:44:25.357Z,1436.00
2023-03-07T08:45:46.280Z,1808.00
2023-03-07T08:46:25.256Z,2148.00
2023-03-07T08:47:25.140Z,2304.00
2023-03-07T08:48:25.072Z,2320.00
2023-03-07T08:49:24.997Z,2244.00
2023-03-07T08:50:25.846Z,2240.00
2023-03-07T08:51:45.847Z,2296.00
2023-03-07T08:52:24.796Z,2316.00
2023-03-07T08:53:24.717Z,2156.00
2023-03-07T08:54:24.647Z,1896.00
2023-03-07T08:55:24.585Z,1892.00
2023-03-07T08:56:24.510Z,1932.00
2023-03-07T08:57:45.415Z,1760.00
2023-03-07T08:58:24.373Z,1708.00
2023-03-07T08:59:24.374Z,1972.00
2023-03-07T09:00:24.302Z,2172.00
2023-03-07T09:01:24.160Z,2032.00
2023-03-07T09:02:24.088Z,1888.00
2023-03-07T09:03:44.995Z,1940.00
2023-03-07T09:04:23.992Z,1888.00
2023-03-07T09:05:23.876Z,2220.00
2023-03-07T09:06:23.825Z,2460.00
2023-03-07T09:07:23.739Z,2296.00
2023-03-07T09:08:23.671Z,2184.00
2023-03-07T09:09:44.593Z,2120.00
2023-03-07T09:10:23.551Z,1964.00
2023-03-07T09:11:23.462Z,2052.00
2023-03-07T09:12:23.393Z,1972.00
2023-03-07T09:13:23.314Z,1804.00
2023-03-07T09:14:23.246Z,1596.00
2023-03-07T09:15:44.171Z,1804.00
2023-03-07T09:16:23.247Z,2092.00
2023-03-07T09:17:23.060Z,2008.00
2023-03-07T09:18:22.999Z,1928.00
2023-03-07T09:19:22.902Z,1900.00
2023-03-07T09:20:22.836Z,1980.00
2023-03-07T09:21:43.754Z,2304.00
2023-03-07T09:22:22.698Z,2196.00
2023-03-07T09:23:22.627Z,1924.00
2023-03-07T09:24:22.568Z,1768.00
2023-03-07T09:25:22.493Z,1608.00
2023-03-07T09:26:22.472Z,1416.00
2023-03-07T09:27:43.329Z,996.00
2023-03-07T09:28:22.281Z,1276.00
2023-03-07T09:29:22.222Z,1492.00
2023-03-07T09:30:22.166Z,1752.00
2023-03-07T09:31:22.098Z,3432.00
2023-03-07T09:32:22.044Z,3760.00
2023-03-07T09:33:44.137Z,3556.00
2023-03-07T09:34:21.861Z,3656.00
2023-03-07T09:35:21.813Z,3396.00
2023-03-07T09:36:21.728Z,3292.00
2023-03-07T09:37:21.686Z,2988.00
2023-03-07T09:38:21.597Z,2824.00
2023-03-07T09:39:42.511Z,2748.00
2023-03-07T09:40:21.478Z,2684.00
2023-03-07T09:41:21.391Z,2624.00
2023-03-07T09:42:21.318Z,2600.00
2023-03-07T09:43:21.255Z,2596.00
2023-03-07T09:44:21.177Z,2628.00
2023-03-07T09:45:42.137Z,2748.00
2023-03-07T09:46:21.044Z,3168.00
2023-03-07T09:47:20.968Z,3532.00
2023-03-07T09:48:20.916Z,3768.00
2023-03-07T09:49:20.842Z,3680.00
2023-03-07T09:50:20.861Z,3368.00
2023-03-07T09:51:41.678Z,3132.00
2023-03-07T09:52:20.643Z,3152.00
2023-03-07T09:53:20.556Z,3188.00
2023-03-07T09:54:20.511Z,3216.00
2023-03-07T09:55:20.416Z,3404.00
2023-03-07T09:56:20.354Z,3648.00
2023-03-07T09:57:41.282Z,4156.00
2023-03-07T09:58:20.219Z,4372.00
2023-03-07T09:59:23.126Z,4408.00
2023-03-07T10:00:20.186Z,4324.00
2023-03-07T10:01:20.005Z,4448.00
2023-03-07T10:02:19.939Z,4936.00
2023-03-07T10:03:40.892Z,5500.00
2023-03-07T10:04:19.829Z,6080.00
2023-03-07T10:05:19.752Z,5908.00
2023-03-07T10:06:19.695Z,5400.00
2023-03-07T10:07:19.603Z,5692.00
2023-03-07T10:08:19.562Z,4732.00
2023-03-07T10:09:40.464Z,4044.00
2023-03-07T10:10:19.415Z,4352.00
2023-03-07T10:11:19.371Z,4752.00
2023-03-07T10:12:19.274Z,4548.00
2023-03-07T10:13:19.200Z,4084.00
2023-03-07T10:14:19.135Z,4204.00
2023-03-07T10:15:40.241Z,4580.00
2023-03-07T10:16:19.085Z,4712.00
2023-03-07T10:17:18.931Z,4436.00
2023-03-07T10:18:18.874Z,4172.00
2023-03-07T10:19:18.812Z,4272.00
2023-03-07T10:20:18.843Z,3720.00
2023-03-07T10:21:39.657Z,3532.00
2023-03-07T10:22:18.608Z,3692.00
2023-03-07T10:23:18.536Z,3744.00
2023-03-07T10:24:18.477Z,4612.00
2023-03-07T10:25:18.406Z,4204.00
2023-03-07T10:26:18.336Z,3712.00
2023-03-07T10:27:39.251Z,3840.00
2023-03-07T10:28:18.237Z,3896.00
2023-03-07T10:29:18.180Z,4172.00
2023-03-07T10:30:18.086Z,3976.00
2023-03-07T10:31:18.056Z,3688.00
2023-03-07T10:32:17.948Z,3404.00
2023-03-07T10:33:40.241Z,3020.00
2023-03-07T10:34:26.590Z,2896.00
2023-03-07T10:35:17.786Z,2920.00
2023-03-07T10:36:17.673Z,2980.00
2023-03-07T10:37:17.610Z,2892.00
2023-03-07T10:38:17.543Z,3064.00
2023-03-07T10:39:38.462Z,3132.00
2023-03-07T10:40:17.421Z,3108.00
2023-03-07T10:41:17.344Z,3068.00
2023-03-07T10:42:17.269Z,3068.00
2023-03-07T10:43:17.208Z,3116.00
2023-03-07T10:44:17.140Z,3160.00
2023-03-07T10:45:38.181Z,3136.00
2023-03-07T10:46:25.180Z,3104.00
2023-03-07T10:47:16.967Z,3088.00
2023-03-07T10:48:16.871Z,3088.00
2023-03-07T10:49:16.809Z,3072.00
2023-03-07T10:50:16.731Z,3020.00
2023-03-07T10:51:37.660Z,3012.00
2023-03-07T10:52:16.612Z,2864.00
2023-03-07T10:53:16.531Z,2920.00
2023-03-07T10:54:16.485Z,2916.00
2023-03-07T10:55:16.413Z,2908.00
2023-03-07T10:56:16.336Z,3016.00
2023-03-07T10:57:37.253Z,3112.00
2023-03-07T10:58:16.203Z,3196.00
2023-03-07T10:59:16.145Z,3304.00
2023-03-07T11:00:16.068Z,3340.00
2023-03-07T11:01:16.134Z,3376.00
2023-03-07T11:02:15.938Z,3476.00
2023-03-07T11:03:51.063Z,3740.00
2023-03-07T11:04:15.813Z,4024.00
2023-03-07T11:05:15.753Z,4192.00
2023-03-07T11:06:15.669Z,4288.00
2023-03-07T11:07:15.598Z,4360.00
2023-03-07T11:08:15.545Z,4368.00
2023-03-07T11:09:36.532Z,4256.00
2023-03-07T11:10:15.393Z,3976.00
2023-03-07T11:11:15.337Z,4176.00
2023-03-07T11:12:15.256Z,4088.00
2023-03-07T11:13:15.213Z,3932.00
2023-03-07T11:14:16.934Z,3784.00
2023-03-07T11:15:36.046Z,3592.00
2023-03-07T11:16:15.005Z,3480.00
2023-03-07T11:17:14.920Z,3412.00
2023-03-07T11:18:14.873Z,3348.00
2023-03-07T11:19:14.799Z,3284.00
2023-03-07T11:20:14.739Z,3188.00
2023-03-07T11:21:35.684Z,3076.00
2023-03-07T11:22:14.597Z,2908.00
2023-03-07T11:23:14.544Z,2844.00
2023-03-07T11:24:14.582Z,2684.00
2023-03-07T11:25:14.456Z,2772.00
2023-03-07T11:26:14.329Z,2772.00
2023-03-07T11:27:35.241Z,2728.00
2023-03-07T11:28:14.215Z,2740.00
2023-03-07T11:29:14.126Z,2784.00
2023-03-07T11:30:14.053Z,2748.00
2023-03-07T11:31:14.037Z,2740.00
2023-03-07T11:32:13.998Z,2736.00
2023-03-07T11:33:34.833Z,2664.00
2023-03-07T11:34:13.780Z,2564.00
2023-03-07T11:35:13.712Z,2484.00
2023-03-07T11:36:13.650Z,2556.00
2023-03-07T11:37:13.592Z,2440.00
2023-03-07T11:38:13.519Z,2680.00
2023-03-07T11:39:34.435Z,2864.00
2023-03-07T11:40:13.389Z,2968.00
2023-03-07T11:41:13.324Z,3036.00
2023-03-07T11:42:13.247Z,3092.00
2023-03-07T11:43:13.186Z,3032.00
2023-03-07T11:44:13.126Z,2644.00
2023-03-07T11:45:34.021Z,2252.00
2023-03-07T11:46:13.029Z,2064.00
2023-03-07T11:47:12.905Z,2040.00
2023-03-07T11:48:12.846Z,1956.00
2023-03-07T11:49:12.802Z,1956.00
2023-03-07T11:50:12.727Z,1916.00
2023-03-07T11:51:33.625Z,1784.00
2023-03-07T11:52:12.572Z,1728.00
2023-03-07T11:53:12.507Z,1696.00
2023-03-07T11:54:12.440Z,1684.00
2023-03-07T11:55:12.385Z,1648.00
2023-03-07T11:56:12.328Z,1656.00
2023-03-07T11:57:33.222Z,1732.00
2023-03-07T11:58:12.169Z,1812.00
2023-03-07T11:59:12.102Z,1932.00
2023-03-07T12:00:12.047Z,2064.00
2023-03-07T12:01:12.204Z,2184.00
2023-03-07T12:02:11.930Z,2032.00
2023-03-07T12:03:32.818Z,1944.00
2023-03-07T12:04:11.774Z,2016.00
2023-03-07T12:05:11.700Z,2116.00
2023-03-07T12:06:11.629Z,2176.00
2023-03-07T12:07:11.554Z,2136.00
2023-03-07T12:08:11.504Z,2036.00
2023-03-07T12:09:32.409Z,1860.00
2023-03-07T12:10:11.355Z,1696.00
2023-03-07T12:11:11.287Z,1556.00
2023-03-07T12:12:11.220Z,1424.00
2023-03-07T12:13:11.174Z,1360.00
2023-03-07T12:14:11.099Z,1292.00
2023-03-07T12:15:31.999Z,1148.00
2023-03-07T12:16:11.020Z,1092.00
2023-03-07T12:17:10.883Z,1108.00
2023-03-07T12:18:10.879Z,1100.00
2023-03-07T12:19:10.754Z,1116.00
2023-03-07T12:20:10.679Z,1156.00
2023-03-07T12:21:31.595Z,1128.00
2023-03-07T12:22:10.532Z,1176.00
2023-03-07T12:23:10.477Z,1196.00
2023-03-07T12:24:10.397Z,1148.00
2023-03-07T12:25:10.325Z,1072.00
2023-03-07T12:26:10.261Z,1016.00
2023-03-07T12:27:31.177Z,992.00
2023-03-07T12:28:10.154Z,996.00
2023-03-07T12:29:10.064Z,1012.00
2023-03-07T12:30:09.989Z,1020.00
2023-03-07T12:31:09.982Z,1068.00
2023-03-07T12:32:10.042Z,1156.00
2023-03-07T12:33:30.909Z,1184.00
2023-03-07T12:34:09.713Z,1240.00
2023-03-07T12:35:09.646Z,1332.00
2023-03-07T12:36:09.690Z,1424.00
2023-03-07T12:37:09.502Z,1488.00
2023-03-07T12:38:09.433Z,1428.00
2023-03-07T12:39:30.345Z,1344.00
2023-03-07T12:40:09.289Z,1280.00